This is the latest recevied weather packets stored in our database for station/object 5B4APJ-13. If no packets are shown the sender has not sent any weather packets the latest 10 day(s).
| Time | Temp. | Humidity | Pressure | Rain* | Wind** | Luminosity | Snow |
|---|---|---|---|---|---|---|---|
| 1777790224 | 14.44° C | 88% | 1007.4 hPa | 0.25 mm | 0.45 m/s, 108° | 191 W/m² | - |
| 1777789925 | 14.44° C | 88% | 1007.4 hPa | 0.25 mm | 0.45 m/s, 109° | 243 W/m² | - |
| 1777789625 | 14.44° C | 89% | 1007.4 hPa | 0.51 mm | 1.34 m/s, 99° | 219 W/m² | - |
| 1777789325 | 14.44° C | 91% | 1007.3 hPa | 0.51 mm | 0.45 m/s, 131° | 187 W/m² | - |
| 1777789024 | 13.89° C | 91% | 1007.5 hPa | 0.76 mm | 1.34 m/s, 102° | 340 W/m² | - |
| 1777788725 | 13.89° C | 92% | 1007.4 hPa | 0.76 mm | 0.45 m/s, 112° | 371 W/m² | - |
| 1777788425 | 13.89° C | 92% | 1007.5 hPa | 1.02 mm | 1.34 m/s, 100° | 224 W/m² | - |
| 1777788125 | 13.33° C | 92% | 1007.5 hPa | 1.02 mm | 0.89 m/s, 106° | 111 W/m² | - |
| 1777787825 | 13.33° C | 92% | 1007.4 hPa | 1.27 mm | 0.89 m/s, 109° | 91 W/m² | - |
| 1777787525 | 13.33° C | 93% | 1007.5 hPa | 1.27 mm | 0 m/s | 108 W/m² | - |
| 1777787225 | 13.33° C | 92% | 1007.5 hPa | 1.27 mm | 1.79 m/s, 105° | 85 W/m² | - |
| 1777786925 | 13.33° C | 92% | 1007.6 hPa | 1.27 mm | 0.89 m/s, 108° | 86 W/m² | - |
| 1777786626 | 13.33° C | 93% | 1007.6 hPa | 1.52 mm | 0.89 m/s, 106° | 50 W/m² | - |
| 1777786325 | 13.33° C | 93% | 1007.6 hPa | 1.52 mm | 0.45 m/s, 108° | 85 W/m² | - |
| 1777786025 | 13.33° C | 93% | 1007.8 hPa | 1.27 mm | 0.45 m/s, 108° | 43 W/m² | - |
| 1777785726 | 13.33° C | 92% | 1007.8 hPa | 1.27 mm | 0.89 m/s, 108° | 36 W/m² | - |
| 1777785425 | 13.33° C | 92% | 1007.8 hPa | 1.27 mm | 1.34 m/s, 101° | 35 W/m² | - |
| 1777785126 | 13.33° C | 92% | 1008 hPa | 1.02 mm | 0.89 m/s, 103° | 24 W/m² | - |
| 1777784826 | 13.33° C | 92% | 1007.8 hPa | 1.02 mm | 0.89 m/s, 99° | 29 W/m² | - |
| 1777784525 | 13.33° C | 92% | 1007.9 hPa | 0.76 mm | 0.45 m/s, 98° | 41 W/m² | - |
| 1777784225 | 13.33° C | 91% | 1007.6 hPa | 0.76 mm | 0.45 m/s, 98° | 51 W/m² | - |
| 1777783925 | 13.33° C | 91% | 1007.4 hPa | 0.51 mm | 0.89 m/s, 97° | 47 W/m² | - |
| 1777783625 | 13.33° C | 91% | 1007.6 hPa | 0.51 mm | 0.45 m/s, 95° | 53 W/m² | - |
| 1777783325 | 13.89° C | 91% | 1007.5 hPa | 0.25 mm | 0.45 m/s, 94° | 49 W/m² | - |
| 1777783026 | 13.89° C | 90% | 1007.4 hPa | 0.25 mm | 0.45 m/s, 94° | 29 W/m² | - |
* Rain latest hour (hover to see other rain measurements)
** Current wind speed in m/s (hover to see current wind gust speed)